Time;durP1;ratioP1;P1;durP2;ratioP2;P2;SDS_P1;SDS_P2;PMS_P1;PMS_P2;Temp;Humidity;BMP_temperature;BMP_pressure;BME280_temperature;BME280_humidity;BME280_pressure;Samples;Min_cycle;Max_cycle;Signal;HPM_P1;HPM_P2
2021/06/13 00:01:59;;;;;;;5.80;3.85;;;;;;;13.89;75.54;100352.41;2061533;85;27833;-64
2021/06/13 00:05:01;;;;;;;7.28;4.67;;;;;;;13.88;75.61;100356.55;2066105;85;28743;-64
2021/06/13 00:08:03;;;;;;;7.65;3.92;;;;;;;13.87;75.65;100358.86;2073747;84;30416;-65
2021/06/13 00:11:06;;;;;;;9.05;4.17;;;;;;;13.88;75.75;100364.14;2078453;84;33070;-65
2021/06/13 00:14:08;;;;;;;6.35;4.80;;;;;;;13.86;75.67;100365.20;2082062;84;30168;-66
2021/06/13 00:17:09;;;;;;;9.25;4.72;;;;;;;13.86;75.79;100374.13;2081518;84;27578;-65
2021/06/13 00:20:15;;;;;;;13.00;5.03;;;;;;;13.85;75.82;100369.70;2079532;84;29509;-65
2021/06/13 00:23:17;;;;;;;7.10;4.20;;;;;;;13.86;75.96;100371.44;2082258;84;31079;-65
2021/06/13 00:26:19;;;;;;;6.20;4.47;;;;;;;13.87;75.93;100374.52;2074537;84;33016;-65
2021/06/13 00:29:21;;;;;;;6.42;4.72;;;;;;;13.87;75.97;100377.71;2075235;84;29364;-66
2021/06/13 00:32:23;;;;;;;7.92;5.03;;;;;;;13.88;76.09;100378.09;2069316;84;27541;-66
2021/06/13 00:35:25;;;;;;;5.58;4.47;;;;;;;13.88;76.05;100378.95;2080801;84;29514;-66
2021/06/13 00:38:26;;;;;;;6.20;4.25;;;;;;;13.88;76.09;100375.41;2081108;84;31076;-66
2021/06/13 00:41:28;;;;;;;5.75;4.65;;;;;;;13.88;76.10;100388.38;2082731;84;33023;-68
2021/06/13 00:44:30;;;;;;;13.62;4.87;;;;;;;13.88;76.10;100382.98;2079952;84;29438;-65
2021/06/13 00:47:32;;;;;;;8.83;4.90;;;;;;;13.88;76.08;100380.79;2072506;84;27847;-66
2021/06/13 00:50:44;;;;;;;8.18;4.50;;;;;;;13.86;76.04;100382.22;2087371;84;29451;-66
2021/06/13 00:53:48;;;;;;;9.70;4.45;;;;;;;13.82;75.95;100388.74;2075001;84;32004;-67
2021/06/13 00:56:50;;;;;;;8.83;4.22;;;;;;;13.79;76.04;100386.27;2073868;84;33846;-66
2021/06/13 00:59:52;;;;;;;7.60;4.35;;;;;;;13.76;76.03;100393.18;2083026;84;29416;-66
2021/06/13 01:02:55;;;;;;;8.98;4.85;;;;;;;13.74;76.07;100391.06;2086681;84;27861;-67
2021/06/13 01:05:57;;;;;;;10.20;5.08;;;;;;;13.71;76.05;100390.78;2085660;84;29513;-66
2021/06/13 01:09:03;;;;;;;7.37;4.87;;;;;;;13.70;76.02;100389.51;2073702;85;31141;-67
2021/06/13 01:12:22;;;;;;;7.12;4.37;;;;;;;13.67;76.06;100391.92;2069519;85;32515;-64
2021/06/13 01:15:29;;;;;;;7.42;5.12;;;;;;;13.63;76.00;100397.98;2055017;85;29455;-63
2021/06/13 01:18:42;;;;;;;7.62;4.65;;;;;;;13.61;76.01;100391.82;2048800;85;27606;-63
2021/06/13 01:22:01;;;;;;;9.45;4.87;;;;;;;13.57;76.03;100397.48;2065174;85;28889;-63
2021/06/13 01:25:27;;;;;;;11.18;4.75;;;;;;;13.54;76.07;100393.63;2062247;85;30613;-67
2021/06/13 01:29:03;;;;;;;9.00;5.28;;;;;;;13.51;75.98;100395.55;2064229;85;33766;-67
2021/06/13 01:32:19;;;;;;;6.55;4.50;;;;;;;13.47;76.03;100393.99;2069779;85;30178;-67
2021/06/13 01:35:23;;;;;;;14.38;5.28;;;;;;;13.44;76.05;100389.28;2070849;85;27575;-67
2021/06/13 01:38:25;;;;;;;7.47;4.60;;;;;;;13.41;76.13;100385.42;2071316;85;28675;-66
2021/06/13 01:41:31;;;;;;;11.03;4.30;;;;;;;13.41;76.08;100386.77;2070611;85;31089;-67
2021/06/13 01:44:33;;;;;;;9.23;5.60;;;;;;;13.40;76.06;100387.69;2068106;85;32926;-67
2021/06/13 01:47:37;;;;;;;5.35;4.20;;;;;;;13.38;75.91;100386.45;2064615;85;30082;-67
2021/06/13 01:50:39;;;;;;;7.97;4.58;;;;;;;13.37;76.04;100384.72;2074782;85;27562;-66
2021/06/13 01:53:43;;;;;;;8.43;4.33;;;;;;;13.35;76.04;100385.28;2056118;85;28672;-66
2021/06/13 01:56:49;;;;;;;10.10;4.65;;;;;;;13.34;76.00;100388.44;2068171;85;31906;-67
2021/06/13 01:59:51;;;;;;;10.10;4.87;;;;;;;13.31;75.92;100390.00;2073068;85;34096;-66
2021/06/13 02:02:54;;;;;;;7.15;4.15;;;;;;;13.30;75.96;100394.10;2066212;85;29580;-66
2021/06/13 02:05:57;;;;;;;9.95;4.25;;;;;;;13.25;75.82;100391.69;2066805;85;27804;-66
2021/06/13 02:09:01;;;;;;;8.98;4.30;;;;;;;13.21;75.79;100399.55;2034326;85;28905;-66
2021/06/13 02:12:05;;;;;;;7.95;4.60;;;;;;;13.18;75.77;100403.77;2031440;86;32035;-67
2021/06/13 02:15:08;;;;;;;7.00;3.72;;;;;;;13.12;75.70;100408.17;2028094;86;32995;-67
2021/06/13 02:18:12;;;;;;;7.45;3.60;;;;;;;13.08;75.65;100407.47;2028358;86;29400;-67
2021/06/13 02:21:14;;;;;;;11.75;4.10;;;;;;;13.01;75.40;100405.62;2030919;86;27533;-67
2021/06/13 02:24:19;;;;;;;7.83;3.50;;;;;;;12.95;75.43;100415.86;2030068;86;28746;-67
2021/06/13 02:27:23;;;;;;;11.12;4.05;;;;;;;12.88;75.45;100420.27;2015153;86;31178;-67
2021/06/13 02:30:29;;;;;;;12.95;3.98;;;;;;;12.82;75.37;100430.02;2028892;86;33057;-63
2021/06/13 02:33:31;;;;;;;8.25;3.90;;;;;;;12.77;75.35;100437.47;2031944;86;29402;-65
2021/06/13 02:36:33;;;;;;;10.03;3.90;;;;;;;12.72;75.34;100443.11;2025535;86;27557;-67
2021/06/13 02:39:35;;;;;;;8.85;3.95;;;;;;;12.66;75.22;100442.59;2030489;86;28731;-63
2021/06/13 02:42:37;;;;;;;4.62;3.45;;;;;;;12.60;75.22;100445.16;2031130;86;31902;-64
2021/06/13 02:45:39;;;;;;;6.08;3.90;;;;;;;12.54;75.28;100450.86;2027794;86;33942;-65
2021/06/13 02:48:41;;;;;;;9.28;3.52;;;;;;;12.49;75.27;100457.84;2028945;86;29390;-62
2021/06/13 02:52:22;;;;;;;7.10;3.58;;;;;;;12.47;75.33;100462.43;2029677;86;27845;-64
2021/06/13 02:55:29;;;;;;;9.88;3.55;;;;;;;12.46;75.38;100467.41;2018941;86;29579;-63
2021/06/13 02:58:51;;;;;;;7.05;4.12;;;;;;;12.44;75.42;100471.53;2020629;86;31927;-64
2021/06/13 03:01:53;;;;;;;10.20;3.87;;;;;;;12.44;75.46;100474.68;2035042;86;33051;-63
2021/06/13 03:05:05;;;;;;;10.35;3.90;;;;;;;12.45;75.45;100479.11;2034211;85;29378;-63
2021/06/13 03:08:06;;;;;;;7.53;3.75;;;;;;;12.48;75.61;100478.09;2049288;85;27632;-63
2021/06/13 03:11:09;;;;;;;10.93;3.70;;;;;;;12.53;75.62;100482.72;2027682;86;28970;-67
2021/06/13 03:14:11;;;;;;;10.32;4.20;;;;;;;12.58;75.55;100478.81;2033104;86;32409;-65
2021/06/13 03:17:16;;;;;;;9.80;3.60;;;;;;;12.64;75.63;100483.02;2049088;85;33012;-63
2021/06/13 03:20:20;;;;;;;6.22;3.77;;;;;;;12.71;75.70;100484.39;2030874;86;29353;-63
2021/06/13 03:23:31;;;;;;;9.75;3.67;;;;;;;12.79;75.64;100492.52;2035013;85;27896;-63
2021/06/13 03:26:36;;;;;;;8.35;3.92;;;;;;;12.86;75.42;100497.92;2023662;86;28745;-66
2021/06/13 03:29:42;;;;;;;11.80;3.70;;;;;;;12.94;75.58;100500.18;2027847;86;31055;-67
2021/06/13 03:32:44;;;;;;;9.73;4.10;;;;;;;13.02;75.35;100497.94;2033785;86;33359;-67
2021/06/13 03:35:47;;;;;;;7.72;3.17;;;;;;;13.12;75.16;100503.17;2050750;85;29452;-67
2021/06/13 03:38:50;;;;;;;8.73;3.90;;;;;;;13.19;74.85;100505.92;2038259;86;27641;-67
2021/06/13 03:41:53;;;;;;;7.90;3.08;;;;;;;13.30;74.89;100505.30;1974968;88;29814;-66
2021/06/13 03:44:55;;;;;;;6.05;3.42;;;;;;;13.42;74.52;100512.30;2035982;86;31087;-67
2021/06/13 03:47:59;;;;;;;13.40;3.75;;;;;;;13.56;74.50;100511.00;2016428;86;33257;-67
2021/06/13 03:51:02;;;;;;;9.18;3.98;;;;;;;13.67;74.26;100518.45;2052778;85;29396;-66
2021/06/13 03:54:04;;;;;;;12.18;4.12;;;;;;;13.75;73.79;100516.16;2030462;86;27589;-67
2021/06/13 03:57:07;;;;;;;8.10;3.55;;;;;;;13.80;73.72;100523.98;2041013;86;28736;-67
2021/06/13 04:00:10;;;;;;;14.03;3.00;;;;;;;13.82;73.48;100522.04;2038967;86;31017;-67
2021/06/13 04:03:15;;;;;;;11.63;3.25;;;;;;;13.82;73.28;100525.62;2041949;86;33189;-66
2021/06/13 04:06:25;;;;;;;6.50;3.12;;;;;;;13.85;72.97;100530.44;2039455;86;29465;-67
2021/06/13 04:09:26;;;;;;;7.30;3.17;;;;;;;13.88;73.10;100532.45;2068655;84;27654;-68
2021/06/13 04:12:28;;;;;;;9.70;3.45;;;;;;;13.89;72.79;100533.34;2035125;86;28882;-68
2021/06/13 04:15:30;;;;;;;10.13;3.37;;;;;;;13.92;72.50;100534.02;2067421;84;31929;-67
2021/06/13 04:18:34;;;;;;;9.18;3.50;;;;;;;13.96;72.39;100538.73;2066838;84;33956;-67
2021/06/13 04:21:36;;;;;;;8.75;3.52;;;;;;;14.07;72.23;100542.13;2011135;86;29513;-65
2021/06/13 04:24:40;;;;;;;10.93;3.25;;;;;;;14.18;72.08;100546.88;2002566;87;27518;-65
2021/06/13 04:27:43;;;;;;;9.23;3.33;;;;;;;14.23;71.70;100545.63;2066420;84;28720;-67
2021/06/13 04:30:50;;;;;;;8.58;3.62;;;;;;;14.30;71.64;100555.55;2080300;84;31232;-66
2021/06/13 04:33:51;;;;;;;6.78;3.62;;;;;;;14.40;71.24;100550.45;2070744;84;33044;-67
2021/06/13 04:36:53;;;;;;;9.35;3.35;;;;;;;14.51;70.99;100561.93;2071219;84;30196;-67
2021/06/13 04:39:55;;;;;;;5.87;3.08;;;;;;;14.67;71.06;100566.75;2078355;84;27605;-67
2021/06/13 04:42:56;;;;;;;6.20;3.33;;;;;;;14.88;70.46;100563.20;2068637;84;28716;-66
2021/06/13 04:45:58;;;;;;;12.05;3.12;;;;;;;15.17;70.70;100563.16;2070498;84;31169;-67
2021/06/13 04:49:00;;;;;;;9.38;3.40;;;;;;;15.99;70.44;100559.61;2071910;84;32933;-68
2021/06/13 04:52:02;;;;;;;10.20;3.92;;;;;;;17.82;68.90;100563.30;2063132;84;30126;-67
2021/06/13 04:55:11;;;;;;;11.95;2.85;;;;;;;17.82;68.90;100563.30;2084178;84;27588;-68
2021/06/13 04:58:21;;;;;;;8.70;3.55;;;;;;;18.39;67.79;100558.95;2076426;84;29752;-67
2021/06/13 05:01:23;;;;;;;6.37;2.95;;;;;;;19.45;67.02;100570.41;2062320;84;31081;-68
2021/06/13 05:04:25;;;;;;;7.33;2.58;;;;;;;19.82;64.36;100570.53;2078343;84;32994;-68
2021/06/13 05:07:27;;;;;;;10.55;2.60;;;;;;;20.32;65.26;100574.05;2071223;84;29482;-68
2021/06/13 05:10:29;;;;;;;10.38;3.30;;;;;;;21.21;63.96;100574.86;2020128;86;27595;-68
2021/06/13 05:13:30;;;;;;;6.20;2.90;;;;;;;21.66;61.24;100580.85;2017810;86;28673;-69
2021/06/13 05:16:32;;;;;;;6.10;2.55;;;;;;;22.11;60.99;100578.06;2028401;86;31040;-69
2021/06/13 05:19:34;;;;;;;5.45;2.55;;;;;;;22.14;58.77;100584.09;2017762;86;32978;-69
2021/06/13 05:22:51;;;;;;;6.80;2.60;;;;;;;21.77;58.04;100585.31;2018782;86;30076;-69
2021/06/13 05:25:56;;;;;;;12.33;3.02;;;;;;;21.42;57.12;100591.62;2014132;86;27579;-68
2021/06/13 05:28:58;;;;;;;7.58;3.00;;;;;;;20.98;57.32;100585.58;2024299;86;29650;-67
2021/06/13 05:32:00;;;;;;;7.95;3.15;;;;;;;20.70;57.45;100586.13;2019432;86;31014;-68
2021/06/13 05:35:02;;;;;;;7.03;2.90;;;;;;;20.52;56.66;100584.55;2020460;86;32948;-67
2021/06/13 05:38:05;;;;;;;5.97;3.17;;;;;;;20.42;56.90;100590.44;2023795;86;29568;-67
2021/06/13 05:41:06;;;;;;;9.98;2.98;;;;;;;20.48;57.45;100585.80;2018975;86;27510;-67
2021/06/13 05:44:08;;;;;;;5.03;3.12;;;;;;;20.62;56.94;100590.05;2018039;86;28737;-67
2021/06/13 05:47:10;;;;;;;10.32;3.40;;;;;;;20.45;55.55;100599.19;2012700;86;31119;-67
2021/06/13 05:50:15;;;;;;;11.05;3.00;;;;;;;20.10;55.55;100601.72;2015592;86;33061;-67
2021/06/13 05:53:17;;;;;;;12.10;3.60;;;;;;;19.71;56.29;100599.97;2025848;86;29398;-68
2021/06/13 05:56:19;;;;;;;6.03;2.90;;;;;;;19.40;56.44;100607.95;2018377;86;27579;-67
2021/06/13 05:59:20;;;;;;;8.95;2.90;;;;;;;19.15;56.58;100611.81;2021762;86;28682;-67
2021/06/13 06:02:22;;;;;;;12.45;3.40;;;;;;;18.98;57.01;100618.11;2023496;86;31024;-67
2021/06/13 06:05:24;;;;;;;7.00;2.85;;;;;;;18.98;57.62;100619.47;2018425;86;32869;-63
2021/06/13 06:08:29;;;;;;;10.38;3.35;;;;;;;19.06;56.67;100623.80;2027080;85;29438;-66
2021/06/13 06:11:30;;;;;;;9.70;2.95;;;;;;;19.11;56.73;100626.14;2063849;85;27485;-63
2021/06/13 06:14:32;;;;;;;5.33;3.30;;;;;;;19.28;56.45;100631.55;2063012;85;28873;-63
2021/06/13 06:17:35;;;;;;;8.65;3.25;;;;;;;19.51;56.16;100634.25;2058534;85;32232;-67
2021/06/13 06:20:37;;;;;;;8.65;2.85;;;;;;;19.91;55.83;100635.55;2029835;86;33033;-65
2021/06/13 06:23:38;;;;;;;9.45;3.40;;;;;;;20.24;55.57;100633.20;1985387;88;29314;-63
2021/06/13 06:26:40;;;;;;;8.30;3.05;;;;;;;20.77;55.36;100632.77;2032555;86;27508;-67
2021/06/13 06:29:42;;;;;;;9.55;3.15;;;;;;;21.20;54.46;100637.16;2033182;86;29496;-63
2021/06/13 06:32:44;;;;;;;5.75;2.83;;;;;;;21.25;53.43;100644.92;2029438;86;31968;-66
2021/06/13 06:35:46;;;;;;;13.65;3.60;;;;;;;21.19;53.28;100647.70;2005458;87;33644;-64
2021/06/13 06:38:48;;;;;;;9.30;3.35;;;;;;;21.05;52.48;100655.72;2034983;86;30524;-63
2021/06/13 06:41:49;;;;;;;7.97;3.10;;;;;;;21.30;52.39;100649.95;1992270;88;27544;-63
2021/06/13 06:44:52;;;;;;;4.22;2.77;;;;;;;21.84;51.58;100658.25;2063029;85;29248;-63
2021/06/13 06:47:54;;;;;;;9.83;3.55;;;;;;;22.48;49.91;100657.87;2056338;85;31120;-62
2021/06/13 06:50:56;;;;;;;10.75;3.77;;;;;;;23.17;50.46;100649.50;2039766;86;33796;-67
2021/06/13 06:53:58;;;;;;;6.40;2.92;;;;;;;23.90;49.59;100650.56;2040321;86;29387;-67
2021/06/13 06:57:00;;;;;;;10.35;3.10;;;;;;;24.57;47.76;100648.28;2029025;86;27677;-66
2021/06/13 07:00:02;;;;;;;7.12;2.92;;;;;;;24.53;46.89;100656.49;2032284;86;29740;-66
2021/06/13 07:03:10;;;;;;;10.85;2.42;;;;;;;24.46;45.71;100651.81;2055845;85;32088;-65
2021/06/13 07:06:08;;;;;;;7.00;2.50;;;;;;;24.69;45.96;100655.73;2044244;86;34017;-67
2021/06/13 07:09:09;;;;;;;5.75;2.72;;;;;;;24.98;44.16;100647.77;2032202;86;30128;-66
2021/06/13 07:12:12;;;;;;;7.08;2.65;;;;;;;25.32;44.62;100658.38;2059288;84;27599;-66
2021/06/13 07:15:14;;;;;;;5.58;2.85;;;;;;;25.53;43.70;100663.98;2068579;84;29629;-64
2021/06/13 07:18:17;;;;;;;7.58;2.45;;;;;;;25.32;41.99;100665.23;2073899;84;31876;-63
2021/06/13 07:21:19;;;;;;;5.15;2.70;;;;;;;24.99;42.66;100671.91;2080858;84;33805;-64
2021/06/13 07:24:21;;;;;;;7.00;2.40;;;;;;;24.58;42.54;100677.92;2068340;84;29380;-64
2021/06/13 07:27:23;;;;;;;6.05;2.50;;;;;;;24.31;42.33;100689.34;2079795;84;27561;-67
2021/06/13 07:30:24;;;;;;;11.08;3.92;;;;;;;23.96;42.23;100693.25;2081034;84;28772;-63
2021/06/13 07:33:29;;;;;;;7.12;2.67;;;;;;;23.79;42.38;100689.45;2068874;84;30995;-63
2021/06/13 07:36:31;;;;;;;4.45;2.30;;;;;;;23.57;42.62;100684.39;2075661;84;33184;-70
2021/06/13 07:39:32;;;;;;;9.88;3.20;;;;;;;23.72;43.25;100693.80;2065198;84;29408;-71
2021/06/13 07:42:34;;;;;;;6.55;2.55;;;;;;;24.15;42.70;100696.88;2057390;84;27484;-70
2021/06/13 07:45:39;;;;;;;8.18;2.67;;;;;;;24.08;42.01;100703.97;2076981;84;29342;-70
2021/06/13 07:48:41;;;;;;;5.75;2.55;;;;;;;23.79;41.87;100704.50;2075922;84;30998;-69
2021/06/13 07:51:43;;;;;;;4.92;2.55;;;;;;;23.55;41.80;100701.45;2080691;84;32945;-64
2021/06/13 07:54:47;;;;;;;5.90;2.58;;;;;;;23.42;41.87;100712.72;2072884;84;27835;-62
2021/06/13 07:57:49;;;;;;;11.40;3.22;;;;;;;23.23;41.38;100708.20;2076917;84;27512;-64
2021/06/13 08:00:56;;;;;;;6.42;2.87;;;;;;;23.07;40.99;100708.29;2070108;84;28697;-61
2021/06/13 08:03:58;;;;;;;10.75;2.58;;;;;;;23.12;41.65;100711.94;2074184;84;30993;-63
2021/06/13 08:07:00;;;;;;;9.45;2.52;;;;;;;23.22;41.45;100710.09;2076205;84;32909;-67
2021/06/13 08:10:07;;;;;;;6.05;2.40;;;;;;;23.07;40.90;100720.59;2064474;84;29363;-65
2021/06/13 08:13:08;;;;;;;9.23;2.75;;;;;;;22.68;40.45;100712.45;2045970;84;27493;-69
2021/06/13 08:16:10;;;;;;;6.62;2.62;;;;;;;22.52;41.59;100723.45;2070454;84;28872;-70
2021/06/13 08:19:12;;;;;;;9.63;2.30;;;;;;;22.52;41.60;100731.64;2064468;84;31007;-69
2021/06/13 08:22:13;;;;;;;8.98;2.70;;;;;;;22.59;41.80;100731.44;2042229;86;33188;-68
2021/06/13 08:25:16;;;;;;;5.17;2.47;;;;;;;22.67;39.77;100744.38;2013073;87;29307;-69
2021/06/13 08:28:18;;;;;;;4.35;2.90;;;;;;;22.60;40.04;100742.72;2041706;86;27516;-66
2021/06/13 08:31:22;;;;;;;;;;;;;;;22.38;39.57;100740.23;2035651;86;27574;-67
2021/06/13 08:34:24;;;;;;;8.33;2.72;;;;;;;22.55;38.87;100748.27;2004240;87;30931;-67
2021/06/13 08:37:27;;;;;;;8.43;2.22;;;;;;;22.86;39.19;100739.91;2068295;84;33026;-68
2021/06/13 08:40:29;;;;;;;7.45;2.75;;;;;;;22.91;38.89;100739.82;2063602;84;29391;-68
2021/06/13 08:43:31;;;;;;;4.15;2.65;;;;;;;22.72;39.51;100752.13;2063728;84;27553;-67
2021/06/13 08:46:32;;;;;;;7.75;2.60;;;;;;;22.66;39.93;100753.57;2061434;84;28694;-67
2021/06/13 08:49:35;;;;;;;9.40;2.60;;;;;;;22.88;40.56;100755.65;2076160;84;31225;-69
2021/06/13 08:52:37;;;;;;;7.78;3.25;;;;;;;22.74;39.65;100752.36;2061954;84;33091;-67
2021/06/13 08:55:39;;;;;;;6.95;2.90;;;;;;;22.34;39.88;100758.77;2072483;84;30175;-67
2021/06/13 08:58:43;;;;;;;6.25;2.25;;;;;;;22.06;39.76;100755.86;2070416;84;27546;-65
2021/06/13 09:01:45;;;;;;;5.55;2.77;;;;;;;21.77;40.49;100767.52;2033360;84;28766;-66
2021/06/13 09:04:48;;;;;;;4.83;2.33;;;;;;;21.56;40.77;100770.28;2063369;84;31113;-66
2021/06/13 09:07:58;;;;;;;8.58;2.22;;;;;;;21.46;40.38;100774.83;2069698;84;33526;-68
2021/06/13 09:11:00;;;;;;;6.12;2.60;;;;;;;21.48;40.92;100776.41;2035605;84;29284;-66
2021/06/13 09:14:14;;;;;;;8.03;2.72;;;;;;;21.48;40.93;100777.78;1985556;88;27552;-68
2021/06/13 09:17:27;;;;;;;5.28;2.40;;;;;;;21.48;40.80;100781.86;2015435;87;29514;-65
2021/06/13 09:20:30;;;;;;;6.00;2.33;;;;;;;21.60;40.82;100778.59;1980145;88;45497;-63
2021/06/13 09:23:34;;;;;;;8.68;2.40;;;;;;;21.71;40.69;100777.64;2000196;88;33015;-61
2021/06/13 09:26:38;;;;;;;6.97;2.90;;;;;;;21.83;40.82;100779.25;2028101;86;29518;-61
2021/06/13 09:29:52;;;;;;;5.50;2.70;;;;;;;21.77;39.24;100771.61;1976928;89;27499;-61
2021/06/13 09:33:16;;;;;;;4.22;1.65;;;;;;;21.68;39.84;100782.84;2014864;87;29439;-62
2021/06/13 09:36:23;;;;;;;5.97;2.30;;;;;;;21.83;39.98;100774.31;1977580;88;31049;-64
2021/06/13 09:39:29;;;;;;;5.90;1.95;;;;;;;21.98;38.89;100792.51;1983913;88;33845;-63
2021/06/13 09:42:31;;;;;;;4.62;2.10;;;;;;;22.07;39.47;100790.81;1995714;88;29428;-62
2021/06/13 09:45:32;;;;;;;6.22;1.80;;;;;;;22.24;39.65;100796.12;1997305;88;27517;-61
2021/06/13 09:48:43;;;;;;;4.10;1.98;;;;;;;22.46;39.60;100793.67;1999847;88;28633;-66
2021/06/13 09:51:48;;;;;;;5.08;2.08;;;;;;;22.58;39.25;100800.71;1995246;88;31796;-60
2021/06/13 09:54:55;;;;;;;6.90;2.62;;;;;;;22.60;38.95;100801.44;1999808;88;33838;-65
2021/06/13 09:58:07;;;;;;;6.05;2.80;;;;;;;22.43;38.29;100798.89;1988194;88;30086;-60
2021/06/13 10:01:10;;;;;;;5.37;2.40;;;;;;;22.24;38.46;100806.52;1998853;88;27913;-63
2021/06/13 10:04:27;;;;;;;6.60;1.82;;;;;;;22.08;38.41;100808.43;1999254;88;29676;-62
2021/06/13 10:07:32;;;;;;;5.65;2.33;;;;;;;22.03;38.71;100816.64;1990758;88;31109;-61
2021/06/13 10:10:43;;;;;;;5.40;2.27;;;;;;;22.07;38.88;100824.44;2055032;84;33033;-61
2021/06/13 10:14:07;;;;;;;7.40;1.82;;;;;;;22.06;38.91;100814.52;2066572;84;29466;-63
2021/06/13 10:17:10;;;;;;;4.95;2.08;;;;;;;22.04;39.31;100823.83;2055576;85;27826;-59
2021/06/13 10:20:25;;;;;;;4.50;2.02;;;;;;;21.93;38.97;100824.30;2062313;85;28615;-65
2021/06/13 10:23:27;;;;;;;6.62;1.95;;;;;;;21.87;38.96;100822.11;2068536;85;31993;-65
2021/06/13 10:26:29;;;;;;;3.75;1.70;;;;;;;21.82;39.44;100827.98;2070848;85;34084;-61
2021/06/13 10:29:35;;;;;;;3.45;1.90;;;;;;;21.79;38.99;100832.86;2074586;85;29467;-59
2021/06/13 10:32:37;;;;;;;6.80;1.70;;;;;;;21.76;39.17;100824.95;2062554;85;27521;-64
2021/06/13 10:35:39;;;;;;;3.95;1.55;;;;;;;21.76;39.29;100828.52;2060834;85;29456;-64
2021/06/13 10:38:41;;;;;;;4.35;1.98;;;;;;;21.68;39.46;100830.56;2004645;87;31023;-66
2021/06/13 10:41:44;;;;;;;5.75;1.92;;;;;;;21.50;39.30;100834.91;2060421;85;33101;-65
2021/06/13 10:44:52;;;;;;;4.45;1.87;;;;;;;21.51;39.78;100838.00;2063821;85;30120;-59
2021/06/13 10:48:09;;;;;;;7.12;2.17;;;;;;;21.67;39.81;100827.50;2072268;85;27510;-60
2021/06/13 10:51:34;;;;;;;4.83;1.60;;;;;;;21.61;39.85;100833.97;2048187;85;27608;-63
2021/06/13 10:54:53;;;;;;;4.45;1.90;;;;;;;21.46;39.35;100838.38;2055333;85;31055;-61
2021/06/13 10:57:55;;;;;;;3.05;1.30;;;;;;;21.27;39.70;100847.78;2067911;85;33820;-66
2021/06/13 11:01:26;;;;;;;6.47;2.00;;;;;;;20.92;39.49;100853.42;2073447;85;29548;-66
2021/06/13 11:04:58;;;;;;;6.00;1.55;;;;;;;20.65;39.55;100851.13;2061263;85;27524;-63
2021/06/13 11:08:02;;;;;;;5.58;2.47;;;;;;;20.41;39.74;100860.84;2064474;85;29744;-63
2021/06/13 11:11:25;;;;;;;5.12;1.98;;;;;;;20.28;39.91;100863.19;2078879;85;31095;-65
2021/06/13 11:14:31;;;;;;;2.90;1.70;;;;;;;20.21;40.43;100861.98;2066182;85;33081;-64
2021/06/13 11:18:06;;;;;;;4.95;1.95;;;;;;;20.22;40.56;100870.52;2061642;85;29372;-60
2021/06/13 11:21:20;;;;;;;5.50;1.40;;;;;;;20.24;40.17;100873.09;2074440;85;27518;-65
2021/06/13 11:24:51;;;;;;;5.75;1.52;;;;;;;20.24;40.64;100873.09;2063698;85;28644;-61
2021/06/13 11:28:19;;;;;;;4.95;1.90;;;;;;;20.33;40.26;100864.20;2068627;85;31801;-65
2021/06/13 11:31:24;;;;;;;4.50;1.75;;;;;;;20.36;40.80;100861.20;2061417;85;33029;-62
2021/06/13 11:34:28;;;;;;;4.47;1.67;;;;;;;20.27;41.08;100860.61;2074500;85;29413;-66
2021/06/13 11:37:30;;;;;;;6.73;2.07;;;;;;;19.98;41.04;100869.29;2039496;85;27570;-63
2021/06/13 11:40:34;;;;;;;9.40;2.00;;;;;;;19.65;41.21;100881.32;2056070;85;28708;-65
2021/06/13 11:43:45;;;;;;;4.60;1.82;;;;;;;19.38;41.64;100887.95;2075106;85;31071;-65
2021/06/13 11:46:51;;;;;;;3.87;2.02;;;;;;;19.13;41.51;100879.47;2072180;85;33864;-59
2021/06/13 11:49:53;;;;;;;6.40;2.12;;;;;;;18.90;42.19;100887.47;2070894;84;29379;-65
2021/06/13 11:53:00;;;;;;;6.67;2.27;;;;;;;18.75;42.41;100891.34;2064730;85;27621;-64
2021/06/13 11:56:00;;;;;;;8.48;1.75;;;;;;;18.59;42.68;100894.34;2072971;84;28797;-63
2021/06/13 11:59:06;;;;;;;6.17;2.52;;;;;;;18.37;42.56;100885.92;2066016;85;31050;-65
2021/06/13 12:02:13;;;;;;;10.20;2.27;;;;;;;18.25;42.99;100888.18;2066709;85;33029;-65
2021/06/13 12:05:15;;;;;;;7.80;1.98;;;;;;;18.16;43.15;100897.84;2066370;85;29552;-62
2021/06/13 12:08:18;;;;;;;6.95;1.50;;;;;;;18.19;43.60;100895.42;2047304;86;27589;-66
2021/06/13 12:11:41;;;;;;;4.10;1.90;;;;;;;18.30;43.98;100898.22;2025720;85;28706;-65
2021/06/13 12:14:45;;;;;;;4.97;1.85;;;;;;;18.44;43.72;100902.64;2050183;84;31929;-64
2021/06/13 12:17:46;;;;;;;5.08;1.47;;;;;;;18.63;44.08;100900.78;2067218;84;33068;-65
2021/06/13 12:20:57;;;;;;;7.50;2.55;;;;;;;18.79;43.89;100901.84;2076094;84;29409;-65
2021/06/13 12:24:38;;;;;;;7.45;1.70;;;;;;;18.81;43.50;100909.89;2074140;84;27707;-65
2021/06/13 12:27:28;;;;;;;11.93;1.72;;;;;;;18.74;43.74;100912.20;2045535;84;27586;-62
2021/06/13 12:30:30;;;;;;;5.97;2.05;;;;;;;18.60;43.72;100904.22;2047686;84;32328;-63
2021/06/13 12:33:37;;;;;;;8.80;1.93;;;;;;;18.53;43.86;100911.95;2072481;84;29291;-65
2021/06/13 12:36:54;;;;;;;4.03;1.72;;;;;;;18.41;44.11;100910.11;2069494;84;29399;-63
2021/06/13 12:40:06;;;;;;;9.38;2.10;;;;;;;18.39;44.06;100919.73;2064409;84;27659;-62
2021/06/13 12:43:13;;;;;;;4.62;1.70;;;;;;;18.43;44.45;100913.11;2073317;84;29740;-64
2021/06/13 12:46:17;;;;;;;5.30;1.90;;;;;;;18.53;44.31;100912.80;2071504;84;31248;-65
2021/06/13 12:49:18;;;;;;;5.97;2.30;;;;;;;18.74;44.40;100917.63;2062713;84;33039;-67
2021/06/13 12:52:20;;;;;;;3.77;1.67;;;;;;;18.94;44.09;100916.63;2070014;84;29395;-61
2021/06/13 12:55:23;;;;;;;4.30;2.35;;;;;;;19.14;43.94;100913.80;2069462;84;27633;-64
2021/06/13 12:58:30;;;;;;;5.10;1.92;;;;;;;19.27;44.08;100911.86;2067763;84;28736;-62
2021/06/13 13:01:32;;;;;;;8.78;2.55;;;;;;;19.39;43.96;100922.77;2072962;84;31022;-64
2021/06/13 13:04:43;;;;;;;14.65;5.25;;;;;;;19.36;44.26;100929.31;2065622;84;32936;-66
2021/06/13 13:07:47;;;;;;;8.45;2.87;;;;;;;19.20;44.24;100924.67;2065692;84;29965;-63
2021/06/13 13:11:03;;;;;;;8.15;2.10;;;;;;;18.88;43.83;100937.45;2053714;84;27947;-61
2021/06/13 13:14:07;;;;;;;14.38;2.33;;;;;;;18.57;44.38;100934.30;2035371;86;29395;-61
2021/06/13 13:17:11;;;;;;;12.68;2.80;;;;;;;18.31;44.65;100935.21;2030363;86;32161;-61
2021/06/13 13:20:27;;;;;;;8.13;2.30;;;;;;;18.18;45.03;100935.72;2010129;86;34072;-65
2021/06/13 13:23:45;;;;;;;4.95;2.62;;;;;;;18.16;45.05;100938.52;2015922;86;29615;-62
2021/06/13 13:27:07;;;;;;;7.60;2.75;;;;;;;18.21;45.44;100931.41;2005256;87;27548;-64
2021/06/13 13:30:29;;;;;;;8.90;2.70;;;;;;;18.23;45.11;100929.45;2033263;86;28984;-62
2021/06/13 13:33:35;;;;;;;4.60;2.00;;;;;;;18.28;45.30;100929.15;2022800;86;31111;-64
2021/06/13 13:36:44;;;;;;;7.35;2.08;;;;;;;18.41;45.06;100939.48;2033502;86;33008;-62
2021/06/13 13:39:47;;;;;;;7.25;2.10;;;;;;;18.53;45.19;100943.16;2029596;86;29435;-63
2021/06/13 13:43:02;;;;;;;12.85;2.20;;;;;;;18.72;45.12;100945.84;2026241;85;27993;-62
2021/06/13 13:46:27;;;;;;;3.75;1.65;;;;;;;18.90;45.36;100943.13;2031838;86;28608;-61
2021/06/13 13:49:30;;;;;;;5.62;1.70;;;;;;;19.11;45.23;100943.89;1951457;90;32028;-62
2021/06/13 13:52:32;;;;;;;5.53;2.00;;;;;;;19.24;45.17;100946.05;1949598;90;33854;-61
2021/06/13 13:56:01;;;;;;;5.37;1.98;;;;;;;19.37;44.83;100939.67;1950842;90;30104;-65
2021/06/13 13:59:03;;;;;;;5.65;1.70;;;;;;;19.43;44.49;100940.09;1947185;90;27689;-65
2021/06/13 14:02:06;;;;;;;3.17;1.62;;;;;;;19.50;44.74;100947.28;1950654;90;28698;-62
2021/06/13 14:05:10;;;;;;;6.67;2.10;;;;;;;19.57;44.87;100950.38;1949813;90;32126;-61
2021/06/13 14:08:14;;;;;;;5.15;1.55;;;;;;;19.60;44.71;100948.80;1945484;90;34078;-61
2021/06/13 14:11:18;;;;;;;5.40;1.98;;;;;;;19.58;44.34;100943.97;1916511;91;27776;-62
2021/06/13 14:14:21;;;;;;;5.05;1.92;;;;;;;19.47;44.22;100947.98;1926157;91;27581;-62
2021/06/13 14:17:23;;;;;;;5.17;2.33;;;;;;;19.40;44.32;100948.95;1906464;91;28690;-61
2021/06/13 14:20:25;;;;;;;6.42;3.20;;;;;;;19.33;44.47;100945.84;1991960;88;31014;-61
2021/06/13 14:23:27;;;;;;;9.08;5.05;;;;;;;19.32;44.41;100957.69;2028956;84;32948;-63